Time;durP1;ratioP1;P1;durP2;ratioP2;P2;SDS_P1;SDS_P2;PMS_P1;PMS_P2;Temp;Humidity;BMP_temperature;BMP_pressure;BME280_temperature;BME280_humidity;BME280_pressure;Samples;Min_cycle;Max_cycle;Signal;HPM_P1;HPM_P2
2021/05/15 00:01:49;;;;;;;13.45;11.60;;;14.20;71.80;;;;;;5038837;28;20503;-71
2021/05/15 00:04:15;;;;;;;12.52;11.13;;;14.20;71.40;;;;;;5031172;28;20504;-70
2021/05/15 00:06:41;;;;;;;13.52;11.90;;;14.20;71.90;;;;;;5051759;28;20025;-71
2021/05/15 00:09:07;;;;;;;14.05;12.00;;;14.20;72.20;;;;;;5033182;28;20037;-71
2021/05/15 00:11:34;;;;;;;12.85;11.48;;;14.20;72.40;;;;;;5036493;28;20136;-70
2021/05/15 00:14:01;;;;;;;12.57;11.25;;;14.20;72.20;;;;;;5038703;28;20045;-70
2021/05/15 00:16:26;;;;;;;13.15;11.63;;;14.10;72.00;;;;;;5029578;28;20077;-70
2021/05/15 00:18:52;;;;;;;13.88;12.23;;;14.20;71.80;;;;;;5036613;28;20085;-70
2021/05/15 00:21:18;;;;;;;14.30;12.45;;;14.10;71.60;;;;;;5034290;28;20615;-70
2021/05/15 00:23:43;;;;;;;14.25;11.55;;;14.10;71.80;;;;;;5033310;28;20479;-70
2021/05/15 00:26:12;;;;;;;13.18;11.65;;;14.10;72.30;;;;;;5035749;28;20095;-70
2021/05/15 00:28:37;;;;;;;12.75;11.45;;;14.10;71.60;;;;;;5041689;28;20057;-70
2021/05/15 00:31:03;;;;;;;12.43;11.13;;;14.00;71.50;;;;;;5030763;28;20505;-71
2021/05/15 00:33:30;;;;;;;12.73;11.35;;;14.10;71.30;;;;;;5038719;28;20482;-70
2021/05/15 00:35:56;;;;;;;15.73;11.85;;;14.00;72.00;;;;;;5035944;28;20371;-70
2021/05/15 00:38:21;;;;;;;14.13;12.32;;;14.00;71.60;;;;;;5032308;28;20037;-71
2021/05/15 00:40:47;;;;;;;15.40;13.00;;;14.00;71.80;;;;;;5031478;28;20122;-70
2021/05/15 00:43:13;;;;;;;16.13;12.63;;;14.00;71.80;;;;;;5036833;28;20192;-71
2021/05/15 00:45:39;;;;;;;13.40;11.95;;;14.00;72.10;;;;;;5030157;28;22764;-71
2021/05/15 00:48:05;;;;;;;13.13;11.73;;;14.10;72.10;;;;;;5036363;28;20052;-70
2021/05/15 00:50:31;;;;;;;13.93;12.43;;;14.00;71.30;;;;;;5037831;28;20395;-71
2021/05/15 00:52:57;;;;;;;14.43;10.93;;;14.00;71.80;;;;;;5035848;28;20037;-71
2021/05/15 00:55:24;;;;;;;12.15;10.93;;;14.00;71.50;;;;;;5039455;28;20532;-71
2021/05/15 00:57:52;;;;;;;12.27;11.02;;;14.00;71.90;;;;;;5027964;28;20041;-71
2021/05/15 01:00:28;;;;;;;12.43;11.13;;;14.00;71.70;;;;;;5033005;28;20187;-70
2021/05/15 01:02:53;;;;;;;12.10;10.23;;;14.00;72.70;;;;;;5028900;28;20045;-71
2021/05/15 01:05:19;;;;;;;14.43;10.68;;;13.90;72.50;;;;;;5036664;28;20528;-71
2021/05/15 01:07:47;;;;;;;10.88;9.77;;;13.90;72.20;;;;;;5030085;28;20037;-71
2021/05/15 01:10:16;;;;;;;11.15;9.98;;;13.90;72.40;;;;;;5041251;28;20086;-72
2021/05/15 01:12:53;;;;;;;9.70;8.73;;;13.90;71.80;;;;;;5036845;28;20040;-71
2021/05/15 01:15:21;;;;;;;11.27;9.85;;;13.90;72.10;;;;;;5038649;28;20041;-71
2021/05/15 01:17:54;;;;;;;10.52;9.38;;;13.80;71.90;;;;;;5034765;28;20041;-71
2021/05/15 01:20:24;;;;;;;11.70;10.32;;;13.80;72.20;;;;;;5045968;28;20064;-71
2021/05/15 01:22:51;;;;;;;11.38;9.98;;;13.90;72.40;;;;;;5036536;28;20106;-71
2021/05/15 01:25:17;;;;;;;11.50;9.98;;;13.80;72.60;;;;;;5042177;28;20037;-71
2021/05/15 01:27:43;;;;;;;11.05;9.90;;;13.90;72.70;;;;;;5035999;28;20140;-71
2021/05/15 01:30:20;;;;;;;12.52;10.65;;;13.90;72.20;;;;;;5040056;28;20285;-71
2021/05/15 01:32:46;;;;;;;14.45;10.77;;;13.90;72.50;;;;;;5034116;28;20128;-71
2021/05/15 01:35:15;;;;;;;12.07;10.10;;;13.90;71.70;;;;;;5042908;28;20091;-72
2021/05/15 01:37:41;;;;;;;11.38;10.18;;;13.90;72.10;;;;;;5038557;28;20045;-71
2021/05/15 01:40:08;;;;;;;11.05;9.95;;;13.80;72.30;;;;;;5043840;28;20043;-71
2021/05/15 01:42:34;;;;;;;12.93;10.35;;;13.80;72.00;;;;;;5039096;28;20042;-71
2021/05/15 01:45:00;;;;;;;12.88;10.48;;;13.80;72.10;;;;;;5044692;28;20033;-70
2021/05/15 01:47:26;;;;;;;12.43;11.15;;;13.80;71.90;;;;;;5037922;28;20029;-70
2021/05/15 01:49:52;;;;;;;12.55;10.38;;;13.80;72.40;;;;;;5041481;28;20033;-70
2021/05/15 01:52:18;;;;;;;11.07;9.80;;;13.80;71.90;;;;;;5039202;28;20517;-71
2021/05/15 01:54:44;;;;;;;11.65;9.90;;;13.70;72.10;;;;;;5037261;28;20072;-70
2021/05/15 01:57:10;;;;;;;11.60;10.40;;;13.80;72.10;;;;;;5039670;28;20483;-70
2021/05/15 01:59:37;;;;;;;13.10;10.75;;;13.80;71.50;;;;;;5041311;28;20106;-70
2021/05/15 02:02:03;;;;;;;12.10;9.70;;;13.70;72.20;;;;;;5038676;28;20075;-71
2021/05/15 02:04:28;;;;;;;9.85;8.85;;;13.60;71.70;;;;;;5036468;28;20175;-71
2021/05/15 02:06:56;;;;;;;11.57;8.95;;;13.70;71.70;;;;;;5038141;28;20634;-70
2021/05/15 02:09:22;;;;;;;13.20;9.57;;;13.60;71.10;;;;;;5036469;28;20048;-70
2021/05/15 02:11:48;;;;;;;10.60;9.23;;;13.60;71.40;;;;;;5043554;28;20037;-70
2021/05/15 02:14:13;;;;;;;9.88;8.90;;;13.60;71.60;;;;;;5034486;28;20038;-71
2021/05/15 02:16:39;;;;;;;10.50;9.13;;;13.70;71.40;;;;;;5035309;28;20048;-72
2021/05/15 02:19:07;;;;;;;11.05;9.00;;;13.60;70.80;;;;;;5037150;28;20055;-71
2021/05/15 02:21:33;;;;;;;10.60;9.50;;;13.70;71.00;;;;;;5035136;28;20041;-70
2021/05/15 02:23:58;;;;;;;11.82;10.05;;;13.60;71.40;;;;;;5044756;28;20036;-72
2021/05/15 02:26:25;;;;;;;11.65;10.13;;;13.60;70.80;;;;;;5040321;28;20124;-70
2021/05/15 02:29:40;;;;;;;11.45;9.75;;;13.70;70.80;;;;;;5037583;28;20049;-71
2021/05/15 02:32:06;;;;;;;11.43;10.23;;;13.70;72.00;;;;;;5016458;28;20033;-70
2021/05/15 02:34:32;;;;;;;13.10;11.05;;;13.60;71.90;;;;;;5059647;28;20045;-70
2021/05/15 02:37:28;;;;;;;13.10;10.68;;;13.60;71.70;;;;;;5038581;28;20120;-70
2021/05/15 02:39:57;;;;;;;12.15;10.25;;;13.70;73.30;;;;;;5012077;28;20120;-71
2021/05/15 02:42:22;;;;;;;12.88;11.05;;;13.70;71.20;;;;;;5037208;28;20041;-71
2021/05/15 02:44:48;;;;;;;12.82;10.25;;;13.70;72.40;;;;;;5040064;28;20040;-70
2021/05/15 02:47:14;;;;;;;12.38;10.75;;;13.70;71.80;;;;;;5038226;28;20406;-71
2021/05/15 02:50:19;;;;;;;13.63;10.90;;;13.70;72.10;;;;;;5034813;28;20096;-71
2021/05/15 02:52:45;;;;;;;13.85;12.13;;;13.70;72.00;;;;;;5014367;28;20030;-69
2021/05/15 02:55:14;;;;;;;14.30;11.93;;;13.80;71.90;;;;;;5061404;28;20036;-71
2021/05/15 02:57:42;;;;;;;14.98;11.60;;;13.80;72.00;;;;;;5041101;28;20036;-71
2021/05/15 03:00:09;;;;;;;14.80;12.55;;;13.70;72.20;;;;;;5037233;28;20053;-70
2021/05/15 03:02:35;;;;;;;14.82;13.05;;;13.70;72.50;;;;;;5031643;28;20471;-71
2021/05/15 03:08:22;;;;;;;15.05;12.38;;;13.70;72.70;;;;;;4988513;28;20132;-71
2021/05/15 03:10:48;;;;;;;14.25;12.60;;;13.70;72.70;;;;;;5038881;28;20190;-70
2021/05/15 03:13:14;;;;;;;17.30;12.88;;;13.70;72.70;;;;;;5035351;28;20066;-71
2021/05/15 03:15:39;;;;;;;14.90;12.73;;;13.70;72.80;;;;;;5058119;28;20034;-71
2021/05/15 03:18:05;;;;;;;19.00;14.88;;;13.70;73.10;;;;;;5038819;28;20052;-72
2021/05/15 03:20:30;;;;;;;13.80;12.27;;;13.70;73.70;;;;;;5044576;28;20041;-71
2021/05/15 03:22:56;;;;;;;19.70;13.48;;;13.60;73.30;;;;;;5038055;28;20029;-71
2021/05/15 03:25:22;;;;;;;14.60;12.65;;;13.60;73.60;;;;;;5038463;28;20075;-71
2021/05/15 03:27:48;;;;;;;16.42;13.27;;;13.70;73.40;;;;;;5038021;28;20475;-71
2021/05/15 03:30:15;;;;;;;14.73;12.88;;;13.70;73.30;;;;;;5035050;28;20476;-71
2021/05/15 03:32:42;;;;;;;17.67;13.02;;;13.60;73.60;;;;;;5030844;28;20034;-71
2021/05/15 03:35:10;;;;;;;16.10;13.23;;;13.70;73.60;;;;;;5036514;28;20048;-72
2021/05/15 03:37:35;;;;;;;15.40;13.70;;;13.60;73.60;;;;;;5033382;28;20033;-71
2021/05/15 03:40:01;;;;;;;15.52;12.68;;;13.60;73.60;;;;;;5041986;28;20037;-72
2021/05/15 03:42:27;;;;;;;15.52;13.40;;;13.60;73.60;;;;;;5037298;28;20029;-71
2021/05/15 03:44:52;;;;;;;15.13;13.40;;;13.60;73.70;;;;;;5038628;28;20041;-71
2021/05/15 03:47:18;;;;;;;14.45;12.95;;;13.60;73.90;;;;;;5040277;28;20033;-70
2021/05/15 03:49:44;;;;;;;14.88;12.68;;;13.60;74.00;;;;;;5039163;28;20039;-71
2021/05/15 03:52:09;;;;;;;15.55;13.77;;;13.60;74.00;;;;;;5038685;28;20041;-71
2021/05/15 03:54:36;;;;;;;15.52;12.68;;;13.70;73.40;;;;;;5034018;28;20048;-71
2021/05/15 03:57:03;;;;;;;15.60;13.65;;;13.70;73.90;;;;;;5035164;28;20113;-71
2021/05/15 03:59:28;;;;;;;15.20;13.65;;;13.60;74.00;;;;;;5036633;28;20038;-71
2021/05/15 04:01:54;;;;;;;18.73;13.93;;;13.60;74.20;;;;;;5037215;28;20045;-71
2021/05/15 04:04:19;;;;;;;16.75;13.45;;;13.60;74.30;;;;;;5030978;28;20029;-70
2021/05/15 04:06:45;;;;;;;15.82;14.13;;;13.60;74.40;;;;;;5034525;28;20041;-67
2021/05/15 04:09:11;;;;;;;16.40;13.88;;;13.60;74.60;;;;;;5030099;28;20033;-71
2021/05/15 04:11:39;;;;;;;16.92;14.10;;;13.50;74.30;;;;;;5031906;28;20045;-71
2021/05/15 04:16:58;;;;;;;17.38;13.15;;;13.50;74.60;;;;;;5033442;28;20513;-71
2021/05/15 04:19:24;;;;;;;16.77;13.32;;;13.50;74.80;;;;;;5022034;28;20044;-71
2021/05/15 04:21:51;;;;;;;16.55;13.70;;;13.50;74.70;;;;;;5037722;28;20044;-71
2021/05/15 04:24:16;;;;;;;16.63;14.18;;;13.60;75.20;;;;;;5036371;28;20037;-71
2021/05/15 04:26:42;;;;;;;16.77;14.52;;;13.60;74.30;;;;;;5041958;28;20037;-71
2021/05/15 04:29:08;;;;;;;17.42;14.40;;;13.50;74.10;;;;;;5027946;28;20033;-71
2021/05/15 04:31:33;;;;;;;18.73;15.63;;;13.60;74.20;;;;;;5036221;28;20037;-71
2021/05/15 04:33:59;;;;;;;18.08;15.90;;;13.60;73.80;;;;;;5037448;28;20045;-72
2021/05/15 04:36:24;;;;;;;18.67;15.52;;;13.60;74.00;;;;;;5037801;28;20037;-71
2021/05/15 04:38:52;;;;;;;21.85;16.63;;;13.70;73.80;;;;;;5040102;28;20064;-71
2021/05/15 04:41:19;;;;;;;21.00;16.67;;;13.70;73.70;;;;;;5033296;28;20056;-70
2021/05/15 04:43:45;;;;;;;22.42;17.50;;;13.70;73.90;;;;;;5041055;28;20042;-63
2021/05/15 04:46:11;;;;;;;20.20;17.45;;;13.80;73.80;;;;;;5043607;28;20037;-71
2021/05/15 04:48:38;;;;;;;21.45;17.58;;;13.80;73.60;;;;;;5043514;28;20139;-71
2021/05/15 04:51:04;;;;;;;22.60;18.08;;;13.80;73.70;;;;;;5037915;28;20461;-71
2021/05/15 04:53:30;;;;;;;23.15;19.70;;;13.80;73.70;;;;;;5038318;28;20046;-71
2021/05/15 04:55:56;;;;;;;20.80;18.08;;;13.80;73.90;;;;;;5047636;28;20707;-72
2021/05/15 04:58:21;;;;;;;26.08;19.73;;;13.80;74.10;;;;;;5041709;28;20345;-71
2021/05/15 05:00:47;;;;;;;23.75;19.63;;;13.80;73.90;;;;;;5042787;28;20049;-72
2021/05/15 05:03:16;;;;;;;21.90;18.58;;;13.80;73.80;;;;;;5054737;28;20048;-71
2021/05/15 05:05:43;;;;;;;27.20;20.42;;;13.90;74.00;;;;;;5035819;28;20103;-72
2021/05/15 05:08:08;;;;;;;25.35;20.73;;;14.00;73.70;;;;;;5035046;28;20505;-71
2021/05/15 05:10:34;;;;;;;25.58;20.67;;;13.90;73.50;;;;;;5040481;28;20037;-72
2021/05/15 05:13:06;;;;;;;26.20;22.35;;;14.00;73.70;;;;;;5037712;28;20079;-71
2021/05/15 05:15:32;;;;;;;23.60;20.48;;;14.00;74.00;;;;;;5040967;28;20126;-72
2021/05/15 05:17:58;;;;;;;23.95;20.48;;;14.00;73.80;;;;;;5042526;28;20045;-71
2021/05/15 05:20:24;;;;;;;27.38;22.48;;;14.00;73.30;;;;;;5042447;28;20557;-71
2021/05/15 05:22:51;;;;;;;28.40;22.83;;;14.10;73.40;;;;;;5035110;28;20042;-71
2021/05/15 05:25:18;;;;;;;26.08;22.50;;;14.10;73.40;;;;;;5040279;28;20068;-71
2021/05/15 05:27:48;;;;;;;26.83;22.20;;;14.10;73.30;;;;;;5037468;28;20491;-71
2021/05/15 05:30:16;;;;;;;27.83;22.65;;;14.10;73.20;;;;;;5039129;28;20040;-71
2021/05/15 05:32:46;;;;;;;27.67;23.15;;;14.20;73.20;;;;;;5035845;28;20041;-71
2021/05/15 05:35:13;;;;;;;25.42;21.80;;;14.20;73.50;;;;;;5035794;28;20044;-72
2021/05/15 05:37:39;;;;;;;27.63;23.27;;;14.20;72.70;;;;;;5035348;28;20041;-71
2021/05/15 05:40:09;;;;;;;27.58;23.90;;;14.30;73.60;;;;;;5040249;28;20362;-71
2021/05/15 05:42:36;;;;;;;26.48;23.25;;;14.30;72.90;;;;;;5051542;28;20064;-72
2021/05/15 05:45:06;;;;;;;28.73;22.95;;;14.40;72.80;;;;;;5042726;28;20551;-71
2021/05/15 05:47:32;;;;;;;30.02;24.05;;;14.40;72.60;;;;;;5036118;28;20037;-71
2021/05/15 05:49:58;;;;;;;28.20;23.10;;;14.40;72.00;;;;;;5036060;28;20091;-71
2021/05/15 05:52:23;;;;;;;28.77;21.95;;;14.40;72.40;;;;;;5038467;28;20033;-71
2021/05/15 05:54:49;;;;;;;29.40;22.73;;;14.40;72.30;;;;;;5039051;28;20116;-71
2021/05/15 05:57:14;;;;;;;28.02;22.88;;;14.50;71.70;;;;;;5044824;28;20032;-71
2021/05/15 05:59:40;;;;;;;27.85;22.55;;;14.50;71.90;;;;;;5033600;28;20045;-71
2021/05/15 06:02:06;;;;;;;25.90;22.23;;;14.50;71.50;;;;;;5035038;28;21489;-72
2021/05/15 06:04:32;;;;;;;27.80;21.38;;;14.60;71.60;;;;;;5031484;28;20054;-71
2021/05/15 06:06:58;;;;;;;24.65;19.58;;;14.60;71.90;;;;;;5042385;28;20498;-71
2021/05/15 06:09:23;;;;;;;27.30;20.77;;;14.70;71.10;;;;;;5037565;28;20564;-71
2021/05/15 06:11:49;;;;;;;24.90;20.30;;;14.80;71.10;;;;;;5034211;28;20040;-72
2021/05/15 06:14:14;;;;;;;24.08;20.33;;;14.80;71.10;;;;;;5036047;28;20029;-72
2021/05/15 06:16:40;;;;;;;23.88;18.77;;;14.80;70.40;;;;;;5034169;28;20044;-70
2021/05/15 06:19:06;;;;;;;20.15;17.92;;;14.90;70.20;;;;;;5037491;28;20469;-71
2021/05/15 06:21:32;;;;;;;20.48;18.23;;;15.00;69.70;;;;;;5038211;28;20133;-71
2021/05/15 06:23:57;;;;;;;21.75;18.50;;;15.00;70.10;;;;;;5039632;28;20491;-71
2021/05/15 06:26:23;;;;;;;25.83;18.25;;;15.00;69.50;;;;;;5038024;28;20541;-71
2021/05/15 06:28:49;;;;;;;23.77;17.23;;;15.10;69.20;;;;;;5038046;28;20040;-71
2021/05/15 06:31:14;;;;;;;20.48;17.52;;;15.10;69.40;;;;;;5034097;28;20038;-71
2021/05/15 06:33:40;;;;;;;18.35;15.93;;;15.10;68.90;;;;;;5036595;28;20040;-71
2021/05/15 06:36:06;;;;;;;20.38;16.35;;;15.20;68.70;;;;;;5036828;28;20483;-71
2021/05/15 06:38:32;;;;;;;20.83;16.52;;;15.20;68.10;;;;;;5037546;28;20893;-71
2021/05/15 06:40:57;;;;;;;18.30;13.88;;;15.30;67.50;;;;;;5030761;28;20051;-72
2021/05/15 06:43:23;;;;;;;18.75;15.25;;;15.30;67.00;;;;;;5036319;28;20045;-72
2021/05/15 06:45:49;;;;;;;22.73;17.48;;;15.30;67.80;;;;;;5033663;28;20051;-71
2021/05/15 06:48:14;;;;;;;21.27;15.18;;;15.40;67.50;;;;;;5037426;28;20154;-72
2021/05/15 06:50:40;;;;;;;22.52;16.30;;;15.40;66.60;;;;;;5029631;28;20094;-73
2021/05/15 06:53:06;;;;;;;19.13;14.98;;;15.50;66.80;;;;;;5038356;28;20084;-73
2021/05/15 06:55:32;;;;;;;16.83;13.85;;;15.50;67.40;;;;;;5033705;28;20786;-73
2021/05/15 06:58:02;;;;;;;15.23;12.98;;;15.60;66.90;;;;;;5036669;28;20033;-73
2021/05/15 07:00:27;;;;;;;14.13;11.20;;;15.60;66.30;;;;;;5042006;28;20041;-73
2021/05/15 07:02:53;;;;;;;14.32;12.80;;;15.60;66.00;;;;;;5035767;28;20506;-73
2021/05/15 07:05:18;;;;;;;14.68;10.93;;;15.70;66.00;;;;;;5036774;28;20403;-73
2021/05/15 07:07:44;;;;;;;12.10;9.63;;;15.70;64.90;;;;;;5035218;28;20037;-73
2021/05/15 07:10:10;;;;;;;11.55;10.35;;;15.70;64.20;;;;;;5031349;28;20065;-73
2021/05/15 07:12:36;;;;;;;13.38;10.70;;;15.80;64.50;;;;;;5032860;28;20048;-72
2021/05/15 07:15:02;;;;;;;15.43;12.10;;;15.80;64.00;;;;;;5034146;28;20033;-72
2021/05/15 07:17:28;;;;;;;13.18;10.30;;;15.70;64.50;;;;;;5034176;28;20096;-74
2021/05/15 07:19:54;;;;;;;12.88;10.00;;;15.80;63.70;;;;;;5038471;28;20057;-74
2021/05/15 07:22:24;;;;;;;11.13;9.13;;;15.80;64.10;;;;;;5033087;28;20045;-74
2021/05/15 07:24:51;;;;;;;15.82;11.65;;;15.90;63.80;;;;;;5036743;28;20552;-73
2021/05/15 07:27:18;;;;;;;13.85;10.73;;;15.80;63.40;;;;;;5030320;28;20041;-72
2021/05/15 07:29:43;;;;;;;12.05;10.60;;;15.90;63.90;;;;;;5041389;28;20656;-73
2021/05/15 07:32:09;;;;;;;12.35;9.23;;;15.90;63.50;;;;;;5033637;28;20040;-73
2021/05/15 07:34:35;;;;;;;12.23;8.32;;;15.90;63.40;;;;;;5037291;28;20061;-73
2021/05/15 07:37:00;;;;;;;11.20;8.57;;;15.90;62.70;;;;;;5036617;28;20037;-73
2021/05/15 07:39:26;;;;;;;10.95;8.52;;;16.00;62.70;;;;;;5039464;28;20053;-73
2021/05/15 07:41:52;;;;;;;10.77;7.90;;;16.00;62.90;;;;;;5041907;28;20037;-73
2021/05/15 07:44:19;;;;;;;11.55;9.50;;;16.10;63.20;;;;;;5049372;28;20608;-73
2021/05/15 07:46:45;;;;;;;12.40;9.40;;;16.10;62.60;;;;;;5042790;28;20402;-73
2021/05/15 07:49:11;;;;;;;10.48;8.63;;;16.00;63.10;;;;;;5033901;28;20037;-73
2021/05/15 07:51:37;;;;;;;11.65;7.50;;;16.10;62.50;;;;;;5053624;28;20037;-73
2021/05/15 07:54:02;;;;;;;11.07;8.13;;;16.30;62.50;;;;;;5036455;28;20049;-73
2021/05/15 07:56:28;;;;;;;9.43;7.65;;;16.20;62.10;;;;;;5040434;28;20039;-73
2021/05/15 07:58:54;;;;;;;10.20;6.45;;;16.20;61.50;;;;;;5034514;28;20041;-73
2021/05/15 08:01:19;;;;;;;9.73;6.57;;;16.30;61.10;;;;;;5036429;28;20063;-73
2021/05/15 08:03:45;;;;;;;9.13;7.47;;;16.30;60.80;;;;;;5036825;28;20048;-73
2021/05/15 08:06:11;;;;;;;8.63;6.72;;;16.30;61.70;;;;;;5039363;28;20566;-73
2021/05/15 08:08:37;;;;;;;9.70;7.55;;;16.30;62.00;;;;;;5040014;28;20039;-73
2021/05/15 08:11:04;;;;;;;9.23;7.05;;;16.50;61.80;;;;;;5037800;28;20033;-73
2021/05/15 08:13:30;;;;;;;9.27;6.88;;;16.50;60.80;;;;;;5037632;28;20037;-74
2021/05/15 08:23:11;;;;;;;10.88;7.35;;;16.60;60.80;;;;;;4974316;28;20142;-73
2021/05/15 08:25:37;;;;;;;10.75;7.22;;;16.70;60.70;;;;;;5036628;28;20494;-73
2021/05/15 08:28:09;;;;;;;8.90;6.70;;;16.70;59.90;;;;;;5039941;28;20136;-73
2021/05/15 08:30:34;;;;;;;9.10;7.15;;;16.70;59.20;;;;;;5037312;28;20386;-73
2021/05/15 08:33:00;;;;;;;11.05;6.57;;;16.80;59.60;;;;;;5043862;28;20093;-73
2021/05/15 08:35:26;;;;;;;8.35;6.90;;;16.90;59.50;;;;;;5038242;28;20045;-73
2021/05/15 08:37:53;;;;;;;8.18;7.10;;;17.00;59.30;;;;;;5041135;28;20052;-72
2021/05/15 08:40:20;;;;;;;6.90;5.85;;;17.00;59.10;;;;;;5037372;28;20517;-73
2021/05/15 08:42:47;;;;;;;7.65;5.47;;;17.10;59.20;;;;;;5044827;28;20036;-73
2021/05/15 08:45:15;;;;;;;7.57;5.03;;;17.00;57.90;;;;;;5050965;28;20056;-73
2021/05/15 08:47:42;;;;;;;7.30;4.55;;;17.10;58.70;;;;;;5040694;28;20137;-74
2021/05/15 08:50:14;;;;;;;5.68;4.78;;;17.20;58.40;;;;;;5033992;28;20037;-75
2021/05/15 08:52:45;;;;;;;5.53;4.60;;;17.30;58.20;;;;;;5041190;28;20090;-75
2021/05/15 08:55:15;;;;;;;5.88;4.93;;;17.40;57.60;;;;;;5036556;28;20380;-75
2021/05/15 08:57:41;;;;;;;6.32;4.90;;;17.20;57.40;;;;;;5035239;28;20033;-75
2021/05/15 09:00:10;;;;;;;8.60;5.07;;;17.30;57.90;;;;;;5036207;28;20049;-74
2021/05/15 09:02:36;;;;;;;7.10;5.85;;;17.40;57.00;;;;;;5028282;28;20745;-74
2021/05/15 09:05:02;;;;;;;7.65;5.50;;;17.40;56.90;;;;;;5031621;28;20044;-75
2021/05/15 09:07:28;;;;;;;6.82;5.35;;;17.40;57.90;;;;;;5031990;28;20411;-74
2021/05/15 09:09:53;;;;;;;7.63;5.57;;;17.50;57.30;;;;;;5035087;28;20048;-72
2021/05/15 09:12:19;;;;;;;5.50;4.55;;;17.60;57.40;;;;;;5030088;28;20388;-73
2021/05/15 09:14:45;;;;;;;6.45;5.43;;;17.60;56.50;;;;;;5033903;28;20433;-73
2021/05/15 09:17:14;;;;;;;5.78;4.60;;;17.70;56.70;;;;;;5033045;28;20041;-73
2021/05/15 09:19:52;;;;;;;8.55;5.47;;;17.80;55.60;;;;;;5031978;28;20164;-73
2021/05/15 09:22:17;;;;;;;9.02;5.22;;;17.80;55.00;;;;;;5034090;28;20029;-72
2021/05/15 09:24:45;;;;;;;6.88;4.78;;;17.90;55.50;;;;;;5039502;28;20606;-71
2021/05/15 09:27:14;;;;;;;6.15;4.60;;;17.90;55.40;;;;;;5034150;28;20060;-71
2021/05/15 09:29:45;;;;;;;7.20;5.60;;;17.90;54.90;;;;;;5037628;28;20072;-72
2021/05/15 09:32:14;;;;;;;7.30;5.05;;;17.80;54.50;;;;;;5035183;28;20123;-73
2021/05/15 09:34:49;;;;;;;8.43;5.13;;;17.90;55.10;;;;;;5043618;28;20063;-72
2021/05/15 09:37:29;;;;;;;6.70;4.80;;;18.00;54.30;;;;;;5035395;28;20044;-72
2021/05/15 09:39:55;;;;;;;6.82;5.00;;;18.00;54.60;;;;;;5003058;28;20076;-73
2021/05/15 09:42:20;;;;;;;4.38;3.92;;;18.10;54.80;;;;;;5038994;28;20041;-73
2021/05/15 09:44:46;;;;;;;7.68;4.78;;;18.20;54.70;;;;;;5041748;28;20037;-73
2021/05/15 09:47:12;;;;;;;7.85;4.97;;;18.20;54.30;;;;;;5035971;28;20033;-73
2021/05/15 09:49:37;;;;;;;7.50;5.32;;;18.30;54.40;;;;;;5038002;28;20166;-73
2021/05/15 09:52:08;;;;;;;5.93;4.50;;;18.30;54.20;;;;;;5037350;28;20040;-72
2021/05/15 09:54:43;;;;;;;5.25;4.45;;;18.30;53.20;;;;;;5042192;28;20041;-72
2021/05/15 09:57:11;;;;;;;4.57;4.18;;;18.30;53.30;;;;;;5057195;28;20937;-73
2021/05/15 09:59:46;;;;;;;4.97;3.80;;;18.30;52.60;;;;;;5039749;28;20104;-72
2021/05/15 10:02:14;;;;;;;6.50;5.03;;;18.20;52.30;;;;;;5044455;28;20029;-72
2021/05/15 10:04:44;;;;;;;8.23;5.40;;;18.20;52.60;;;;;;5040471;28;20060;-73
2021/05/15 10:07:18;;;;;;;8.35;5.50;;;18.30;51.90;;;;;;5041680;28;20041;-72
2021/05/15 10:09:43;;;;;;;4.85;4.40;;;18.50;51.80;;;;;;5032616;28;20033;-73
2021/05/15 10:12:09;;;;;;;4.45;4.05;;;18.50;52.10;;;;;;5031934;28;20041;-72
2021/05/15 10:14:35;;;;;;;6.97;4.15;;;18.50;51.90;;;;;;5036994;28;20046;-72
2021/05/15 10:17:01;;;;;;;6.07;3.83;;;18.80;57.50;;;;;;5038836;28;20045;-72
2021/05/15 10:19:30;;;;;;;4.65;3.80;;;18.80;58.40;;;;;;5032802;28;20051;-73
2021/05/15 10:21:59;;;;;;;5.13;2.95;;;18.30;64.50;;;;;;5039691;28;20120;-72
2021/05/15 10:24:28;;;;;;;3.70;2.83;;;18.80;61.70;;;;;;5038917;28;20055;-72
2021/05/15 10:27:00;;;;;;;5.47;2.70;;;18.20;68.20;;;;;;5038957;28;20048;-73
2021/05/15 10:29:40;;;;;;;5.05;2.90;;;;;;;;;;5036182;28;20033;-72
2021/05/15 10:32:10;;;;;;;3.97;2.85;;;;;;;;;;5041030;28;20036;-73
2021/05/15 10:34:38;;;;;;;3.85;2.33;;;19.10;49.90;;;;;;5051926;28;20030;-73
2021/05/15 10:37:18;;;;;;;4.47;2.95;;;19.00;50.20;;;;;;5033110;28;20045;-73
2021/05/15 10:39:45;;;;;;;3.35;2.80;;;19.20;49.30;;;;;;5031564;28;20122;-73
2021/05/15 10:42:12;;;;;;;4.13;2.60;;;19.20;50.20;;;;;;5027935;28;20041;-73
2021/05/15 10:44:45;;;;;;;4.57;2.78;;;19.20;50.50;;;;;;5050590;28;20056;-74
2021/05/15 10:47:12;;;;;;;2.00;1.77;;;19.30;49.10;;;;;;5032898;28;20402;-74
2021/05/15 10:49:38;;;;;;;2.90;2.40;;;19.10;49.40;;;;;;5029107;28;20487;-73
2021/05/15 10:52:09;;;;;;;2.63;1.90;;;19.30;48.60;;;;;;5034577;28;20032;-73
2021/05/15 10:54:36;;;;;;;3.25;1.80;;;19.40;47.80;;;;;;5027794;28;20923;-74
2021/05/15 10:57:08;;;;;;;2.40;1.83;;;19.50;47.90;;;;;;5029114;28;20448;-73
2021/05/15 10:59:36;;;;;;;3.63;1.55;;;19.60;46.90;;;;;;5029946;28;20502;-73
2021/05/15 11:02:10;;;;;;;2.22;1.30;;;19.70;47.20;;;;;;5027497;28;20041;-73
2021/05/15 11:04:48;;;;;;;3.28;1.27;;;;;;;;;;5030563;28;20543;-75
2021/05/15 11:07:14;;;;;;;2.97;1.67;;;20.30;43.50;;;;;;5027329;28;20037;-77
2021/05/15 11:09:59;;;;;;;1.25;1.02;;;20.90;44.00;;;;;;5032647;28;20103;-77
2021/05/15 11:12:29;;;;;;;2.65;1.38;;;20.80;41.00;;;;;;5003110;28;20047;-76
2021/05/15 11:15:04;;;;;;;1.35;1.10;;;20.50;44.20;;;;;;5030203;28;20068;-76
2021/05/15 11:17:30;;;;;;;3.50;2.13;;;20.50;43.10;;;;;;5018056;28;20037;-74
2021/05/15 11:20:02;;;;;;;23.83;16.35;;;;;;;;;;5030069;28;20502;-72
2021/05/15 11:22:37;;;;;;;4.50;2.47;;;21.30;41.90;;;;;;5042449;28;20042;-73
2021/05/15 11:25:16;;;;;;;;;;;21.50;41.20;;;;;;5031048;28;20593;-72
2021/05/15 11:27:48;;;;;;;4.25;2.40;;;21.70;41.40;;;;;;5036648;28;19916;-74
2021/05/15 11:30:30;;;;;;;3.72;2.00;;;21.80;38.80;;;;;;5043124;28;20090;-74
2021/05/15 11:33:04;;;;;;;2.20;2.00;;;21.90;40.10;;;;;;5007154;28;20037;-78
2021/05/15 11:35:38;;;;;;;4.05;1.73;;;22.10;39.20;;;;;;5044398;28;20395;-77
2021/05/15 11:38:04;;;;;;;4.07;2.10;;;22.80;40.00;;;;;;5029197;28;20045;-77
2021/05/15 11:40:32;;;;;;;6.32;2.92;;;22.50;40.30;;;;;;5031855;28;20655;-76
2021/05/15 11:42:57;;;;;;;3.13;1.40;;;22.30;40.10;;;;;;5029857;28;20064;-75
2021/05/15 11:45:25;;;;;;;2.83;2.10;;;22.20;40.70;;;;;;5037419;28;20042;-75
2021/05/15 11:48:02;;;;;;;4.50;2.88;;;22.00;40.60;;;;;;5028711;28;20132;-75
2021/05/15 11:50:27;;;;;;;1.23;1.13;;;22.10;40.50;;;;;;5030914;28;20123;-77
2021/05/15 11:53:01;;;;;;;1.60;1.25;;;22.10;39.10;;;;;;5028914;28;20053;-77
2021/05/15 11:55:27;;;;;;;2.63;1.33;;;22.10;39.20;;;;;;5034009;28;20395;-76
2021/05/15 11:58:01;;;;;;;2.55;1.30;;;22.10;39.40;;;;;;5034042;28;20044;-77
2021/05/15 12:00:28;;;;;;;2.80;1.00;;;22.40;38.20;;;;;;5041939;28;20430;-78
2021/05/15 12:02:54;;;;;;;0.88;0.80;;;22.30;37.60;;;;;;5046141;28;20648;-79
2021/05/15 12:05:20;;;;;;;1.85;1.10;;;22.60;38.20;;;;;;5028722;28;20399;-80
2021/05/15 12:07:51;;;;;;;2.33;1.30;;;22.90;37.80;;;;;;5029374;28;20072;-79
2021/05/15 12:10:23;;;;;;;1.73;0.80;;;23.10;35.60;;;;;;5031768;28;20033;-80
2021/05/15 12:13:00;;;;;;;3.28;0.80;;;23.60;34.40;;;;;;5035002;28;20510;-71
2021/05/15 12:15:31;;;;;;;2.08;0.82;;;23.90;33.50;;;;;;5036801;28;20120;-74
2021/05/15 12:18:01;;;;;;;2.53;1.15;;;23.80;35.50;;;;;;5030732;28;20045;-77
2021/05/15 12:20:43;;;;;;;2.53;2.15;;;23.60;35.20;;;;;;5038899;28;20041;-78
2021/05/15 12:23:10;;;;;;;2.13;0.70;;;23.40;34.90;;;;;;5024215;28;20040;-78
2021/05/15 12:25:37;;;;;;;1.60;0.85;;;23.10;33.80;;;;;;5030930;28;20519;-79
2021/05/15 12:28:04;;;;;;;1.77;0.68;;;23.10;34.90;;;;;;5032218;28;20076;-79
2021/05/15 12:30:35;;;;;;;1.92;0.60;;;23.40;35.50;;;;;;5028066;28;20144;-81
2021/05/15 12:33:03;;;;;;;1.05;0.80;;;23.60;34.20;;;;;;5030169;28;20095;-76
2021/05/15 12:35:29;;;;;;;3.15;1.80;;;23.90;34.60;;;;;;5031071;28;20056;-75
2021/05/15 12:37:58;;;;;;;1.20;0.63;;;24.10;34.70;;;;;;5037510;28;20061;-74
2021/05/15 12:40:31;;;;;;;2.53;0.80;;;24.20;33.80;;;;;;5029297;28;20056;-76
2021/05/15 12:43:12;;;;;;;0.95;0.80;;;23.70;32.50;;;;;;5032260;28;20095;-76
2021/05/15 12:45:40;;;;;;;1.75;0.80;;;23.50;31.80;;;;;;5033411;28;20959;-74
2021/05/15 12:48:19;;;;;;;1.70;1.13;;;23.50;33.40;;;;;;5031863;28;20557;-74
2021/05/15 12:50:47;;;;;;;1.00;1.00;;;24.00;33.50;;;;;;5035135;28;20539;-73
2021/05/15 12:53:13;;;;;;;2.88;1.13;;;24.10;33.50;;;;;;5029915;28;20075;-73
2021/05/15 12:55:49;;;;;;;1.10;1.00;;;23.70;34.30;;;;;;5028672;28;20922;-73